F\v Gure Gogoa — EAJC — position and weather

sailwx.info

Track history (hours):
 
Tides and Currents Weather Stations Pressure Air Temp Water Temp Dewpoint Dewpoint Depression Visibility Wind Speed Wind Dir Waves Ship Positions

F\v Gure Gogoa

Last reported at 2015-Apr-17 06:34 UTC. Time now 2015-Apr-19 12:39 UTC.
Position N 44°39' W 001°45'.

Length 37 m.

Type: Fishing. MMSI: 224128930.

Date/timePositionNaut miles runAvg speedWind from/ knotsBaromVisibWave heightAir tempDewpointWater temp
2015-Apr-17 06:34N 44°39' W 001°45'39 2.0
2015-Apr-16 11:30N 43°60' W 001°51'1310.9
2015-Apr-16 10:17N 44°12' W 001°44'810.8
2015-Apr-16 09:33N 44°20' W 001°40'10 9.8
2015-Apr-16 08:33N 44°29' W 001°37'0 0.3
2015-Apr-16 07:25N 44°29' W 001°37'0 0.1
2015-Apr-16 06:21N 44°29' W 001°37'0 0.2
2015-Apr-16 05:33N 44°29' W 001°37'2 1.7
2015-Apr-16 04:06N 44°26' W 001°38'2 4.6
2015-Apr-16 03:33N 44°25' W 001°35'0 0.2
2015-Apr-16 02:33N 44°25' W 001°35'0 0.2
2015-Apr-16 01:29N 44°25' W 001°35'0 0.3
2015-Apr-16 00:25N 44°25' W 001°36'24 1.6
2015-Apr-15 09:11N 44°02' W 001°47'610.1
2015-Apr-15 08:33N 44°08' W 001°44'1010.2
2015-Apr-15 07:33N 44°17' W 001°38'1 0.6
2015-Apr-15 06:33N 44°17' W 001°37'1 0.6
2015-Apr-15 05:33N 44°17' W 001°38'2 1.8
2015-Apr-15 04:33N 44°16' W 001°40'2 2.2
2015-Apr-15 03:29N 44°14' W 001°41'3 0.8
2015-Apr-15 00:04N 44°16' W 001°42'5 1.7
2015-Apr-14 21:04N 44°11' W 001°43'4 5.9
2015-Apr-14 20:25N 44°12' W 001°37'46 3.5
2015-Apr-14 07:22N 43°30' W 002°03'5 1.8
2015-Apr-14 04:16N 43°27' W 001°57'6 8.4
2015-Apr-14 03:33N 43°32' W 001°52'8 8.1
2015-Apr-14 02:33N 43°39' W 001°47'8 8.2
2015-Apr-14 01:33N 43°47' W 001°44'0 0.2
2015-Apr-14 00:32N 43°47' W 001°44'8 7.5
2015-Apr-13 23:33N 43°41' W 001°49'14 0.9
2015-Apr-13 08:26N 43°30' W 002°01'  
2015-Apr-10 02:18N 43°39' W 001°49'3 2.9
2015-Apr-10 01:14N 43°41' W 001°47'0 0.1
2015-Apr-10 00:25N 43°41' W 001°47'13 0.9
2015-Apr-09 09:33N 43°51' W 002°00'1 1.3
2015-Apr-09 08:29N 43°52' W 002°01'3 3.2
2015-Apr-09 07:33N 43°49' W 002°03'0 0.3
2015-Apr-09 06:32N 43°49' W 002°02'10 8.7
2015-Apr-09 05:22N 43°50' W 001°48'6 1.8
2015-Apr-09 02:06N 43°51' W 001°56'2 3.2
2015-Apr-09 01:20N 43°50' W 001°53'5 6.3
2015-Apr-09 00:30N 43°50' W 001°45'2 1.4
2015-Apr-08 23:24N 43°51' W 001°44'23 6.0
2015-Apr-08 19:33N 43°29' W 001°52'6 5.7
2015-Apr-08 18:33N 43°31' W 001°45'9 0.4
2015-Apr-07 21:16N 43°38' W 001°50'  
Track history (hours):
 
Tides and Currents Weather Stations Pressure Air Temp Water Temp Dewpoint Dewpoint Depression Visibility Wind Speed Wind Dir Waves Ship Positions

F\v Gure Gogoa

Last reported at 2015-Apr-17 06:34 UTC. Time now 2015-Apr-19 12:39 UTC.
Position N 44°39' W 001°45'.

Length 37 m.

Type: Fishing. MMSI: 224128930.

Date/timePositionNaut miles runAvg speedWind from/ knotsBaromVisibWave heightAir tempDewpointWater temp
2015-Apr-17 06:34N 44°39' W 001°45'39 2.0
2015-Apr-16 11:30N 43°60' W 001°51'1310.9
2015-Apr-16 10:17N 44°12' W 001°44'810.8
2015-Apr-16 09:33N 44°20' W 001°40'10 9.8
2015-Apr-16 08:33N 44°29' W 001°37'0 0.3
2015-Apr-16 07:25N 44°29' W 001°37'0 0.1
2015-Apr-16 06:21N 44°29' W 001°37'0 0.2
2015-Apr-16 05:33N 44°29' W 001°37'2 1.7
2015-Apr-16 04:06N 44°26' W 001°38'2 4.6
2015-Apr-16 03:33N 44°25' W 001°35'0 0.2
2015-Apr-16 02:33N 44°25' W 001°35'0 0.2
2015-Apr-16 01:29N 44°25' W 001°35'0 0.3
2015-Apr-16 00:25N 44°25' W 001°36'24 1.6
2015-Apr-15 09:11N 44°02' W 001°47'610.1
2015-Apr-15 08:33N 44°08' W 001°44'1010.2
2015-Apr-15 07:33N 44°17' W 001°38'1 0.6
2015-Apr-15 06:33N 44°17' W 001°37'1 0.6
2015-Apr-15 05:33N 44°17' W 001°38'2 1.8
2015-Apr-15 04:33N 44°16' W 001°40'2 2.2
2015-Apr-15 03:29N 44°14' W 001°41'3 0.8
2015-Apr-15 00:04N 44°16' W 001°42'5 1.7
2015-Apr-14 21:04N 44°11' W 001°43'4 5.9
2015-Apr-14 20:25N 44°12' W 001°37'46 3.5
2015-Apr-14 07:22N 43°30' W 002°03'5 1.8
2015-Apr-14 04:16N 43°27' W 001°57'6 8.4
2015-Apr-14 03:33N 43°32' W 001°52'8 8.1
2015-Apr-14 02:33N 43°39' W 001°47'8 8.2
2015-Apr-14 01:33N 43°47' W 001°44'0 0.2
2015-Apr-14 00:32N 43°47' W 001°44'8 7.5
2015-Apr-13 23:33N 43°41' W 001°49'14 0.9
2015-Apr-13 08:26N 43°30' W 002°01'  
2015-Apr-10 02:18N 43°39' W 001°49'3 2.9
2015-Apr-10 01:14N 43°41' W 001°47'0 0.1
2015-Apr-10 00:25N 43°41' W 001°47'13 0.9
2015-Apr-09 09:33N 43°51' W 002°00'1 1.3
2015-Apr-09 08:29N 43°52' W 002°01'3 3.2
2015-Apr-09 07:33N 43°49' W 002°03'0 0.3
2015-Apr-09 06:32N 43°49' W 002°02'10 8.7
2015-Apr-09 05:22N 43°50' W 001°48'6 1.8
2015-Apr-09 02:06N 43°51' W 001°56'2 3.2
2015-Apr-09 01:20N 43°50' W 001°53'5 6.3
2015-Apr-09 00:30N 43°50' W 001°45'2 1.4
2015-Apr-08 23:24N 43°51' W 001°44'23 6.0
2015-Apr-08 19:33N 43°29' W 001°52'6 5.7
2015-Apr-08 18:33N 43°31' W 001°45'9 0.4
2015-Apr-07 21:16N 43°38' W 001°50'  

Dump ship's entire track history